ePrivacy and GPDR Cookie Consent by Cookie Consent
EmailTwitter


Observations de surface / France / LFBO (07630)

Régions: Québec | Canada | États-Unis | Europe | France | UK | Ailleurs
Station
Affichage
Infos & localisation pour LFBO (07630) | Aide pour décoder les METARs

Observations prises le 2022-01-21 à 04H30 UTC à TOULOUSE/BLAGNAC, FR (LFBO)

Etat du ciel: ciel variable.

Température: 1.0 Celsius

Point de rosée: 0.0 Celsius

Humidité relative: 93%

Facteur vent -3.

Vents: Ouest à 15 km/h ou 8 noeuds.

Pression au niveau moyen de la mer: 103.00 kilopascals.

Visibilité horizontale: 6.21 milles terrestres ou 9.94 kilomètres.

Observation METAR:

LFBO 210430Z AUTO 28008KT 9999 SCT046 SCT056 01/M00 Q1030 NOSIG=